Time;durP1;ratioP1;P1;durP2;ratioP2;P2;SDS_P1;SDS_P2;PMS_P1;PMS_P2;Temp;Humidity;BMP_temperature;BMP_pressure;BME280_temperature;BME280_humidity;BME280_pressure;Samples;Min_cycle;Max_cycle;Signal;HPM_P1;HPM_P2
2022/06/21 00:00:20;;;;;;;6.60;4.07;;;22.40;33.20;;;;;;5030510;28;20487;-67
2022/06/21 00:02:47;;;;;;;5.03;3.83;;;22.40;33.60;;;;;;5031209;28;20950;-67
2022/06/21 00:05:20;;;;;;;8.83;4.30;;;22.40;33.50;;;;;;5032331;28;20445;-68
2022/06/21 00:07:45;;;;;;;7.60;4.60;;;22.40;33.50;;;;;;5029149;28;20457;-68
2022/06/21 00:10:16;;;;;;;5.57;4.53;;;22.20;34.10;;;;;;5031013;28;20469;-69
2022/06/21 00:12:42;;;;;;;6.00;3.80;;;22.20;34.20;;;;;;5031338;28;20549;-68
2022/06/21 00:15:08;;;;;;;5.33;3.83;;;22.10;35.20;;;;;;5030999;28;20425;-67
2022/06/21 00:17:34;;;;;;;6.07;4.33;;;22.20;34.90;;;;;;5031038;28;20498;-67
2022/06/21 00:19:59;;;;;;;8.53;4.30;;;22.30;34.30;;;;;;5034750;28;20457;-68
2022/06/21 00:22:26;;;;;;;4.97;4.37;;;22.20;35.30;;;;;;5032282;28;20174;-67
2022/06/21 00:24:52;;;;;;;6.90;4.40;;;22.30;34.70;;;;;;5032301;28;20190;-68
2022/06/21 00:27:20;;;;;;;7.43;4.40;;;22.20;34.90;;;;;;5031136;28;20505;-67
2022/06/21 00:29:46;;;;;;;8.80;4.40;;;22.30;34.40;;;;;;5029391;28;20705;-68
2022/06/21 00:32:15;;;;;;;8.23;4.43;;;22.10;34.80;;;;;;5030735;28;20940;-67
2022/06/21 00:34:42;;;;;;;5.00;4.10;;;22.00;35.30;;;;;;5032019;28;20469;-67
2022/06/21 00:37:17;;;;;;;12.10;4.10;;;22.00;35.20;;;;;;5032388;28;20960;-67
2022/06/21 00:39:43;;;;;;;8.53;4.30;;;22.00;35.50;;;;;;5030938;28;20441;-67
2022/06/21 00:42:30;;;;;;;5.83;3.90;;;21.50;36.30;;;;;;5031585;28;20800;-67
2022/06/21 00:45:10;;;;;;;5.93;3.73;;;21.50;38.20;;;;;;5030758;28;20485;-67
2022/06/21 00:47:51;;;;;;;4.60;3.70;;;21.60;37.80;;;;;;5030614;28;20839;-69
2022/06/21 00:50:31;;;;;;;5.80;4.30;;;21.70;36.50;;;;;;5033090;28;20988;-68
2022/06/21 00:53:16;;;;;;;5.70;4.00;;;21.90;36.60;;;;;;5024258;28;20420;-67
2022/06/21 00:55:48;;;;;;;12.27;3.80;;;21.70;35.90;;;;;;5031681;28;20433;-67
2022/06/21 00:58:15;;;;;;;4.50;3.63;;;21.60;36.20;;;;;;5030974;28;20453;-67
2022/06/21 01:01:20;;;;;;;5.20;3.50;;;21.70;36.50;;;;;;5030348;28;20464;-67
2022/06/21 01:03:51;;;;;;;8.30;3.80;;;21.70;37.00;;;;;;5029255;28;20444;-67
2022/06/21 01:06:33;;;;;;;13.03;3.90;;;21.40;37.80;;;;;;5030722;28;20431;-67
2022/06/21 01:09:10;;;;;;;5.10;3.70;;;21.50;37.70;;;;;;5031608;28;20456;-67
2022/06/21 01:11:46;;;;;;;4.40;4.13;;;21.40;37.30;;;;;;5030427;28;20898;-67
2022/06/21 01:14:14;;;;;;;5.27;4.00;;;21.60;37.70;;;;;;5031363;28;20748;-68
2022/06/21 01:16:40;;;;;;;4.83;3.93;;;21.70;37.00;;;;;;5029776;28;20464;-67
2022/06/21 01:19:20;;;;;;;5.20;3.73;;;21.70;37.70;;;;;;5030365;28;20468;-67
2022/06/21 01:21:48;;;;;;;5.10;3.90;;;21.50;37.20;;;;;;5033559;28;20432;-67
2022/06/21 01:24:24;;;;;;;5.77;3.90;;;21.50;37.30;;;;;;5033284;28;20437;-67
2022/06/21 01:26:54;;;;;;;4.37;3.80;;;21.50;37.20;;;;;;5029860;28;20459;-68
2022/06/21 01:29:23;;;;;;;9.53;4.10;;;21.50;37.30;;;;;;5029816;28;20524;-67
2022/06/21 01:31:50;;;;;;;5.87;3.60;;;21.50;38.90;;;;;;5030850;28;20546;-67
2022/06/21 01:34:21;;;;;;;9.20;3.90;;;21.50;38.20;;;;;;5028733;28;20530;-69
2022/06/21 01:37:08;;;;;;;6.10;3.67;;;21.40;38.00;;;;;;5029887;28;20462;-67
2022/06/21 01:39:42;;;;;;;11.10;4.37;;;21.40;37.60;;;;;;5029626;28;20436;-67
2022/06/21 01:42:34;;;;;;;7.93;4.10;;;21.40;38.10;;;;;;5030495;28;20800;-67
2022/06/21 01:45:04;;;;;;;7.00;4.67;;;21.40;38.30;;;;;;5028121;28;20558;-67
2022/06/21 01:47:43;;;;;;;6.30;3.87;;;21.30;38.20;;;;;;5030798;28;20440;-67
2022/06/21 01:50:10;;;;;;;6.10;3.90;;;21.20;38.30;;;;;;5028203;28;20873;-68
2022/06/21 01:52:38;;;;;;;8.93;4.07;;;21.20;38.40;;;;;;5030569;28;20420;-67
2022/06/21 01:55:16;;;;;;;6.20;4.03;;;21.30;39.20;;;;;;5029607;28;20800;-67
2022/06/21 01:57:42;;;;;;;5.87;3.87;;;21.20;38.90;;;;;;5030910;28;20987;-67
2022/06/21 02:00:08;;;;;;;7.40;4.10;;;21.10;39.10;;;;;;5030423;28;20437;-67
2022/06/21 02:02:39;;;;;;;4.70;4.20;;;21.20;39.60;;;;;;5028666;28;20243;-67
2022/06/21 02:05:10;;;;;;;5.90;4.00;;;21.00;39.20;;;;;;5030508;28;20452;-67
2022/06/21 02:07:42;;;;;;;8.53;3.97;;;21.00;39.50;;;;;;5030564;28;20447;-67
2022/06/21 02:10:10;;;;;;;6.53;3.83;;;17.10;35.60;;;;;;5029734;28;20540;-67
2022/06/21 02:12:41;;;;;;;4.70;4.17;;;21.20;38.70;;;;;;5030746;28;20423;-67
2022/06/21 02:15:17;;;;;;;10.70;3.93;;;21.10;39.10;;;;;;5029874;28;20411;-68
2022/06/21 02:17:47;;;;;;;6.10;3.93;;;21.00;39.30;;;;;;5029399;28;20466;-67
2022/06/21 02:20:19;;;;;;;4.83;3.80;;;21.00;38.70;;;;;;5028561;28;21736;-69
2022/06/21 02:22:45;;;;;;;10.07;4.20;;;21.10;39.30;;;;;;5030550;28;20415;-67
2022/06/21 02:25:17;;;;;;;5.70;3.60;;;21.10;38.90;;;;;;5012295;28;20858;-68
2022/06/21 02:27:43;;;;;;;8.03;4.30;;;21.00;39.60;;;;;;5030487;28;20466;-67
2022/06/21 02:30:16;;;;;;;6.03;3.70;;;20.90;39.00;;;;;;5029629;28;20458;-67
2022/06/21 02:32:42;;;;;;;8.87;3.80;;;20.80;38.70;;;;;;5029613;28;20423;-67
2022/06/21 02:35:29;;;;;;;7.83;3.90;;;20.60;40.20;;;;;;5029601;28;21048;-68
2022/06/21 02:37:58;;;;;;;6.80;4.10;;;20.70;39.40;;;;;;5025770;28;20508;-67
2022/06/21 02:40:30;;;;;;;8.50;3.80;;;20.40;39.30;;;;;;5032395;28;20918;-67
2022/06/21 02:43:01;;;;;;;4.17;3.37;;;20.20;39.30;;;;;;5030274;28;20431;-68
2022/06/21 02:45:33;;;;;;;5.50;3.90;;;20.40;39.70;;;;;;5030248;28;20434;-68
2022/06/21 02:48:08;;;;;;;7.13;3.53;;;20.60;38.90;;;;;;5030579;28;20441;-67
2022/06/21 02:50:45;;;;;;;5.87;3.67;;;20.60;37.80;;;;;;5028343;28;20462;-67
2022/06/21 02:53:19;;;;;;;6.00;3.57;;;20.50;38.00;;;;;;5028060;28;20438;-67
2022/06/21 02:55:52;;;;;;;5.67;3.80;;;20.70;38.50;;;;;;5030318;28;20430;-68
2022/06/21 02:58:39;;;;;;;8.70;3.93;;;20.70;37.00;;;;;;5030290;28;20438;-68
2022/06/21 03:01:20;;;;;;;11.40;3.53;;;20.60;37.80;;;;;;5029481;28;20469;-67
2022/06/21 03:03:48;;;;;;;7.80;4.93;;;20.60;37.40;;;;;;5028771;28;20456;-68
2022/06/21 03:06:17;;;;;;;14.20;4.10;;;20.50;37.70;;;;;;5028869;28;20420;-68
2022/06/21 03:08:51;;;;;;;4.73;3.83;;;20.50;37.60;;;;;;5030463;28;20415;-67
2022/06/21 03:11:19;;;;;;;5.67;3.90;;;20.40;37.10;;;;;;5030239;28;20443;-67
2022/06/21 03:13:45;;;;;;;4.37;3.63;;;20.40;37.70;;;;;;5030310;28;20434;-67
2022/06/21 03:16:16;;;;;;;9.30;4.23;;;20.40;38.10;;;;;;5033440;28;20512;-67
2022/06/21 03:18:52;;;;;;;5.50;3.60;;;20.40;37.00;;;;;;5032466;28;20797;-67
2022/06/21 03:21:32;;;;;;;5.47;3.70;;;20.50;37.80;;;;;;5032897;28;20512;-68
2022/06/21 03:24:03;;;;;;;5.03;3.57;;;20.50;37.50;;;;;;5032467;28;20549;-68
2022/06/21 03:26:30;;;;;;;5.17;3.90;;;20.50;37.20;;;;;;5032257;28;20940;-68
2022/06/21 03:28:57;;;;;;;8.10;4.10;;;20.50;37.20;;;;;;5032098;28;20984;-67
2022/06/21 03:31:38;;;;;;;6.63;4.03;;;20.40;38.10;;;;;;5031895;28;20438;-68
2022/06/21 03:34:09;;;;;;;8.90;3.90;;;20.40;37.20;;;;;;5031449;28;20456;-67
2022/06/21 03:36:35;;;;;;;7.57;3.70;;;20.50;37.90;;;;;;5031919;28;21041;-68
2022/06/21 03:39:09;;;;;;;6.60;3.40;;;20.60;37.00;;;;;;5014857;28;20441;-68
2022/06/21 03:41:43;;;;;;;6.07;3.70;;;20.50;37.60;;;;;;5032715;28;20423;-68
2022/06/21 03:44:09;;;;;;;8.10;3.73;;;20.50;38.10;;;;;;5032272;28;20442;-69
2022/06/21 03:46:45;;;;;;;6.40;4.20;;;20.50;38.50;;;;;;5032723;28;20851;-67
2022/06/21 03:49:20;;;;;;;5.70;4.10;;;20.60;37.10;;;;;;5033219;28;20213;-67
2022/06/21 03:51:48;;;;;;;6.47;4.00;;;20.60;38.10;;;;;;5032498;28;20440;-67
2022/06/21 03:54:26;;;;;;;6.27;3.90;;;20.60;38.50;;;;;;5031486;28;20434;-68
2022/06/21 03:56:57;;;;;;;5.53;3.93;;;20.60;38.30;;;;;;5032741;28;20975;-67
2022/06/21 03:59:36;;;;;;;8.30;4.40;;;20.30;38.20;;;;;;5032642;28;20592;-69
2022/06/21 04:02:07;;;;;;;7.73;4.00;;;20.40;38.90;;;;;;5032017;28;20434;-67
2022/06/21 04:04:45;;;;;;;4.10;3.90;;;20.60;38.10;;;;;;5030655;28;20499;-67
2022/06/21 04:07:31;;;;;;;6.03;4.30;;;20.60;39.00;;;;;;5030785;28;20457;-67
2022/06/21 04:10:16;;;;;;;5.60;4.20;;;20.70;38.30;;;;;;5031774;28;20473;-67
2022/06/21 04:12:56;;;;;;;6.20;3.63;;;20.80;38.30;;;;;;5031592;28;20497;-67
2022/06/21 04:15:33;;;;;;;5.20;3.90;;;20.80;36.70;;;;;;5025159;28;20425;-68
2022/06/21 04:17:59;;;;;;;9.20;4.13;;;20.80;35.70;;;;;;5030924;28;20469;-68
2022/06/21 04:20:43;;;;;;;5.17;4.00;;;20.70;36.70;;;;;;5031333;28;20433;-67
2022/06/21 04:23:30;;;;;;;5.50;4.03;;;20.80;36.50;;;;;;5030667;28;20260;-67
2022/06/21 04:26:09;;;;;;;6.87;4.00;;;20.70;36.80;;;;;;5032437;28;20434;-67
2022/06/21 04:28:47;;;;;;;6.33;4.20;;;20.60;36.50;;;;;;5031742;28;20941;-67
2022/06/21 04:31:37;;;;;;;7.27;4.20;;;20.30;37.90;;;;;;5031056;28;20449;-67
2022/06/21 04:34:26;;;;;;;4.53;3.70;;;20.60;37.70;;;;;;5032515;28;20906;-67
2022/06/21 04:37:07;;;;;;;12.80;4.60;;;20.70;37.50;;;;;;5025139;28;20473;-67
2022/06/21 04:39:48;;;;;;;16.37;4.63;;;20.80;37.60;;;;;;5030829;28;20407;-68
2022/06/21 04:42:24;;;;;;;7.30;4.37;;;20.80;36.90;;;;;;5031178;28;20434;-68
2022/06/21 04:44:55;;;;;;;5.57;3.90;;;20.80;37.00;;;;;;5026696;28;20441;-67
2022/06/21 04:47:32;;;;;;;12.27;3.97;;;21.00;37.30;;;;;;5031905;28;20569;-68
2022/06/21 04:50:19;;;;;;;10.63;4.20;;;21.00;37.00;;;;;;5023590;28;20491;-67
2022/06/21 04:53:03;;;;;;;7.33;4.33;;;21.10;35.90;;;;;;5031529;28;20918;-68
2022/06/21 04:55:54;;;;;;;8.83;3.90;;;21.20;32.10;;;;;;5030764;28;20478;-68
2022/06/21 04:58:19;;;;;;;5.93;3.90;;;21.40;30.50;;;;;;5022324;28;20481;-68
2022/06/21 05:00:45;;;;;;;11.07;4.10;;;21.50;29.90;;;;;;5030018;28;20428;-68
2022/06/21 05:03:35;;;;;;;8.50;4.20;;;21.50;29.40;;;;;;5030562;28;20187;-68
2022/06/21 05:06:01;;;;;;;5.17;3.67;;;21.40;30.20;;;;;;5031250;28;20184;-68
2022/06/21 05:08:27;;;;;;;6.57;3.70;;;21.50;29.60;;;;;;5031582;28;20538;-67
2022/06/21 05:10:58;;;;;;;7.00;4.27;;;21.40;30.00;;;;;;5031133;28;20620;-67
2022/06/21 05:13:37;;;;;;;11.83;3.93;;;21.50;27.60;;;;;;5029239;28;21182;-67
2022/06/21 05:16:10;;;;;;;6.17;3.67;;;21.40;29.10;;;;;;5029293;28;20843;-67
2022/06/21 05:18:42;;;;;;;11.23;3.90;;;21.50;28.60;;;;;;5030140;28;20440;-67
2022/06/21 05:21:12;;;;;;;5.33;3.80;;;21.60;27.20;;;;;;5029828;28;20517;-68
2022/06/21 05:23:39;;;;;;;6.90;3.57;;;21.50;28.30;;;;;;5030160;28;20443;-68
2022/06/21 05:26:28;;;;;;;6.33;3.87;;;21.50;29.40;;;;;;5031154;28;20422;-68
2022/06/21 05:28:58;;;;;;;8.43;3.70;;;21.50;29.80;;;;;;4995936;28;20771;-67
2022/06/21 05:31:28;;;;;;;9.23;4.03;;;21.50;27.70;;;;;;5030796;28;20425;-68
2022/06/21 05:34:03;;;;;;;10.10;4.03;;;21.60;29.00;;;;;;5028850;28;20501;-68
2022/06/21 05:36:37;;;;;;;6.90;4.00;;;21.50;29.40;;;;;;5028102;28;20835;-67
2022/06/21 05:39:11;;;;;;;8.33;3.53;;;21.50;28.70;;;;;;5030024;28;20484;-68
2022/06/21 05:41:41;;;;;;;14.03;4.03;;;21.50;28.90;;;;;;5015853;28;20445;-67
2022/06/21 05:44:14;;;;;;;7.40;3.63;;;21.40;28.70;;;;;;5029704;28;20424;-69
2022/06/21 05:46:46;;;;;;;6.70;4.00;;;21.40;28.70;;;;;;5026496;28;20454;-67
2022/06/21 05:49:25;;;;;;;10.50;4.00;;;21.30;27.90;;;;;;5028794;28;20556;-69
2022/06/21 05:51:53;;;;;;;5.73;3.57;;;21.30;27.40;;;;;;5022667;28;20790;-67
2022/06/21 05:54:23;;;;;;;4.60;3.27;;;21.10;26.80;;;;;;5027101;28;20424;-68
2022/06/21 05:56:50;;;;;;;7.70;3.63;;;21.20;27.10;;;;;;5026527;28;20448;-68
2022/06/21 05:59:18;;;;;;;6.10;3.50;;;21.20;27.60;;;;;;5029920;28;20463;-67
2022/06/21 06:02:09;;;;;;;5.90;3.60;;;21.10;26.80;;;;;;5030502;28;20423;-67
2022/06/21 06:04:48;;;;;;;8.43;3.97;;;21.20;26.90;;;;;;5027910;28;20958;-68
2022/06/21 06:07:52;;;;;;;11.23;3.90;;;21.20;26.30;;;;;;5027226;28;20446;-67
2022/06/21 06:10:20;;;;;;;8.43;3.90;;;21.10;26.80;;;;;;4976724;28;20471;-67
2022/06/21 06:12:55;;;;;;;9.47;3.97;;;21.30;26.90;;;;;;4984431;28;20478;-67
2022/06/21 06:15:41;;;;;;;10.33;4.23;;;21.70;26.70;;;;;;4986351;28;20434;-68
2022/06/21 06:18:23;;;;;;;8.73;4.10;;;21.80;25.90;;;;;;4969624;28;20469;-68
2022/06/21 06:21:18;;;;;;;12.53;3.83;;;21.80;26.30;;;;;;4979261;28;20431;-68
2022/06/21 06:23:56;;;;;;;6.33;3.63;;;21.90;25.80;;;;;;4963177;28;20487;-68
2022/06/21 06:26:29;;;;;;;7.37;3.70;;;22.00;25.70;;;;;;4969118;28;20449;-68
2022/06/21 06:29:11;;;;;;;8.30;3.83;;;22.00;26.20;;;;;;4968846;28;20530;-67
2022/06/21 06:31:59;;;;;;;12.33;4.47;;;22.20;25.50;;;;;;4971926;28;20449;-68
2022/06/21 06:34:30;;;;;;;8.03;4.03;;;22.30;25.00;;;;;;4971512;28;20464;-67
2022/06/21 06:37:03;;;;;;;6.47;3.73;;;22.40;25.70;;;;;;4972507;28;20555;-69
2022/06/21 06:39:35;;;;;;;9.03;4.20;;;22.40;25.10;;;;;;4965450;28;20447;-70
2022/06/21 06:42:26;;;;;;;8.23;3.80;;;22.60;25.60;;;;;;4974517;28;20437;-70
2022/06/21 06:44:56;;;;;;;12.93;4.30;;;22.70;25.90;;;;;;4975359;28;20430;-70
2022/06/21 06:47:38;;;;;;;8.13;4.40;;;22.70;26.60;;;;;;5009203;28;20451;-70
2022/06/21 06:50:24;;;;;;;9.60;4.67;;;22.80;27.20;;;;;;5038010;28;20469;-69
2022/06/21 06:53:31;;;;;;;6.20;4.30;;;22.80;27.50;;;;;;5034326;28;20419;-69
2022/06/21 06:56:01;;;;;;;12.00;4.67;;;22.80;28.00;;;;;;4991514;28;20438;-70
2022/06/21 06:58:44;;;;;;;12.40;4.53;;;23.10;28.20;;;;;;4992162;28;20466;-69
2022/06/21 07:01:15;;;;;;;8.77;4.37;;;23.00;27.90;;;;;;4990732;28;20497;-70
2022/06/21 07:04:13;;;;;;;6.97;4.40;;;23.30;27.80;;;;;;4990861;28;20855;-70
2022/06/21 07:06:56;;;;;;;11.00;4.60;;;23.60;26.90;;;;;;4986768;28;21000;-69
2022/06/21 07:09:35;;;;;;;7.67;4.63;;;23.80;27.00;;;;;;4991393;28;20469;-68
2022/06/21 07:12:27;;;;;;;9.07;4.20;;;23.90;26.50;;;;;;4989678;28;20440;-68
2022/06/21 07:14:54;;;;;;;6.60;4.37;;;24.10;27.10;;;;;;4989618;28;20480;-70
2022/06/21 07:17:29;;;;;;;7.53;4.47;;;24.20;26.60;;;;;;4975311;28;20509;-68
2022/06/21 07:19:55;;;;;;;12.33;4.80;;;23.70;26.70;;;;;;4988994;28;20856;-70
2022/06/21 07:22:33;;;;;;;9.13;4.60;;;23.70;26.80;;;;;;4988110;28;20464;-69
2022/06/21 07:25:14;;;;;;;11.10;4.70;;;24.10;24.90;;;;;;4986191;28;20448;-68
2022/06/21 07:27:44;;;;;;;11.27;4.67;;;24.30;27.00;;;;;;5025067;28;20454;-68
2022/06/21 07:30:13;;;;;;;8.17;4.27;;;24.40;26.60;;;;;;5027873;28;21131;-68
2022/06/21 07:32:54;;;;;;;5.37;4.10;;;24.40;27.50;;;;;;5028498;28;20517;-68
2022/06/21 07:35:32;;;;;;;7.70;4.30;;;24.60;25.60;;;;;;5032413;28;20481;-68
2022/06/21 07:38:14;;;;;;;8.10;4.27;;;24.20;26.20;;;;;;5033670;28;20434;-68
2022/06/21 07:40:46;;;;;;;8.10;4.57;;;24.10;26.80;;;;;;5032263;28;20434;-68
2022/06/21 07:43:39;;;;;;;8.63;4.30;;;24.30;27.40;;;;;;5033324;28;20430;-69
2022/06/21 07:46:07;;;;;;;6.73;4.50;;;24.40;28.00;;;;;;5028124;28;20430;-67
2022/06/21 07:48:59;;;;;;;7.00;4.23;;;24.50;26.00;;;;;;5031980;28;20882;-67
2022/06/21 07:51:50;;;;;;;6.60;4.43;;;24.00;25.80;;;;;;5027309;28;21333;-68
2022/06/21 07:54:22;;;;;;;15.23;4.60;;;24.10;28.60;;;;;;5028031;28;20586;-67
2022/06/21 07:56:54;;;;;;;8.13;4.50;;;24.20;25.40;;;;;;5031968;28;20442;-68
2022/06/21 07:59:45;;;;;;;8.70;4.40;;;24.50;25.90;;;;;;5032759;28;21012;-68
2022/06/21 08:08:20;;;;;;;31.70;4.83;;;24.40;26.80;;;;;;5030685;28;20995;-67
2022/06/21 08:10:58;;;;;;;6.30;4.43;;;24.40;25.80;;;;;;5032625;28;20549;-68
2022/06/21 08:13:24;;;;;;;6.40;4.00;;;24.50;25.90;;;;;;5031772;28;20439;-68
2022/06/21 08:15:58;;;;;;;9.77;4.43;;;24.70;26.80;;;;;;5028869;28;20517;-68
2022/06/21 08:18:39;;;;;;;10.40;4.93;;;24.70;27.80;;;;;;5032325;28;20230;-69
2022/06/21 08:21:34;;;;;;;6.30;4.00;;;24.90;25.00;;;;;;5024403;28;20443;-68
2022/06/21 08:24:22;;;;;;;7.40;4.27;;;24.90;24.40;;;;;;5030799;28;20438;-70
2022/06/21 08:26:57;;;;;;;9.50;3.87;;;24.90;25.00;;;;;;5030328;28;20451;-69
2022/06/21 08:29:49;;;;;;;9.23;4.33;;;24.60;25.70;;;;;;5031747;28;20454;-67
2022/06/21 08:32:39;;;;;;;5.20;3.87;;;24.80;27.20;;;;;;5029028;28;20439;-69
2022/06/21 08:35:19;;;;;;;7.97;3.90;;;24.80;25.20;;;;;;5030663;28;20593;-68
2022/06/21 08:37:50;;;;;;;5.23;3.77;;;25.10;25.50;;;;;;5031192;28;20454;-70
2022/06/21 08:40:55;;;;;;;8.77;4.33;;;24.90;24.70;;;;;;5027065;28;20455;-68
2022/06/21 08:43:42;;;;;;;6.80;4.40;;;24.80;26.40;;;;;;5029330;28;20465;-68
2022/06/21 08:46:36;;;;;;;6.80;3.90;;;25.10;25.40;;;;;;5029676;28;20434;-68
2022/06/21 08:49:41;;;;;;;18.23;4.53;;;25.00;26.20;;;;;;5029470;28;20589;-68
2022/06/21 08:52:34;;;;;;;7.10;3.70;;;25.00;25.40;;;;;;4994088;28;20437;-68
2022/06/21 08:55:00;;;;;;;7.13;4.03;;;25.10;27.10;;;;;;5029295;28;20918;-68
2022/06/21 08:57:44;;;;;;;4.67;3.87;;;25.20;25.00;;;;;;5028657;28;20459;-68
2022/06/21 09:00:33;;;;;;;6.63;3.87;;;25.30;25.20;;;;;;5027441;28;20176;-68
2022/06/21 09:03:01;;;;;;;7.40;3.50;;;25.60;25.10;;;;;;5012289;28;20434;-68
2022/06/21 09:05:33;;;;;;;6.70;4.03;;;25.40;24.50;;;;;;5031660;28;20832;-68
2022/06/21 09:08:07;;;;;;;5.13;3.60;;;25.70;24.60;;;;;;5031579;28;20462;-68
2022/06/21 09:10:32;;;;;;;8.17;4.10;;;25.80;23.20;;;;;;5012861;28;20826;-68
2022/06/21 09:13:11;;;;;;;5.77;3.77;;;25.50;24.50;;;;;;5031480;28;20419;-68
2022/06/21 09:15:46;;;;;;;5.40;4.10;;;25.70;23.70;;;;;;5031298;28;20171;-68
2022/06/21 09:18:33;;;;;;;11.30;4.40;;;25.90;24.20;;;;;;5013454;28;20493;-69
2022/06/21 09:21:13;;;;;;;8.20;4.63;;;25.90;24.80;;;;;;5024380;28;20461;-68
2022/06/21 09:23:53;;;;;;;5.33;4.53;;;25.70;25.20;;;;;;5030945;28;20426;-69
2022/06/21 09:26:30;;;;;;;8.40;4.07;;;25.80;24.90;;;;;;5031221;28;20427;-68
2022/06/21 09:29:02;;;;;;;5.87;4.37;;;25.90;24.40;;;;;;5023313;28;20423;-69
2022/06/21 09:31:38;;;;;;;5.77;4.20;;;25.70;25.20;;;;;;5031374;28;20414;-68
2022/06/21 09:34:13;;;;;;;7.93;4.27;;;25.90;25.50;;;;;;5031094;28;20748;-69
2022/06/21 09:36:55;;;;;;;8.30;4.33;;;26.30;25.10;;;;;;5031236;28;20983;-69
2022/06/21 09:39:42;;;;;;;7.57;4.70;;;25.90;25.30;;;;;;5031233;28;20558;-69
2022/06/21 09:43:01;;;;;;;6.17;3.90;;;26.10;24.60;;;;;;5031320;28;20426;-69
2022/06/21 09:45:27;;;;;;;6.53;4.40;;;26.40;24.30;;;;;;4950523;29;20431;-69
2022/06/21 09:48:14;;;;;;;7.63;4.87;;;26.40;25.50;;;;;;4934411;29;20533;-68
2022/06/21 09:51:19;;;;;;;10.17;4.87;;;26.70;25.20;;;;;;4950657;29;20767;-68
2022/06/21 09:54:11;;;;;;;5.97;4.17;;;25.80;25.00;;;;;;4893030;29;20426;-68
2022/06/21 09:57:05;;;;;;;8.97;5.10;;;26.30;25.50;;;;;;4879266;29;20988;-69
2022/06/21 09:59:43;;;;;;;8.17;4.57;;;26.10;24.80;;;;;;4879813;29;20825;-69
2022/06/21 10:02:37;;;;;;;10.00;4.90;;;26.50;25.80;;;;;;4892739;29;20440;-68
2022/06/21 10:05:03;;;;;;;10.67;4.90;;;26.90;25.90;;;;;;4880573;29;20422;-69
2022/06/21 10:07:44;;;;;;;7.50;4.80;;;27.00;25.70;;;;;;4875262;29;20450;-68
2022/06/21 10:10:40;;;;;;;6.53;4.60;;;26.40;24.90;;;;;;4876077;29;20465;-68
2022/06/21 10:13:18;;;;;;;8.63;5.03;;;26.00;26.10;;;;;;4874770;29;20919;-68
2022/06/21 10:16:16;;;;;;;9.20;5.10;;;26.60;26.40;;;;;;4875935;29;20442;-68
2022/06/21 10:19:02;;;;;;;9.07;5.00;;;27.20;25.80;;;;;;4893395;29;20430;-69
2022/06/21 10:22:05;;;;;;;12.33;5.10;;;27.10;26.00;;;;;;4958908;28;20957;-69
2022/06/21 10:24:33;;;;;;;8.00;4.73;;;27.60;24.70;;;;;;4954209;28;20422;-69
2022/06/21 10:27:16;;;;;;;6.13;4.70;;;27.80;24.80;;;;;;4954645;28;20508;-69
2022/06/21 10:30:01;;;;;;;7.20;4.70;;;27.90;24.50;;;;;;5009508;28;21031;-69
2022/06/21 10:32:45;;;;;;;16.13;4.70;;;28.20;24.10;;;;;;5034482;28;20485;-69
2022/06/21 10:35:16;;;;;;;11.00;4.40;;;27.20;24.10;;;;;;5033559;28;20442;-69
2022/06/21 10:37:44;;;;;;;8.07;4.37;;;27.40;24.60;;;;;;5034721;28;20435;-68
2022/06/21 10:40:40;;;;;;;10.47;4.80;;;28.10;25.10;;;;;;5016369;28;20419;-69
2022/06/21 10:43:21;;;;;;;7.73;4.67;;;28.40;24.60;;;;;;5013602;28;20469;-70
2022/06/21 10:46:05;;;;;;;8.03;4.73;;;29.00;23.40;;;;;;5027075;28;20433;-69
2022/06/21 10:49:00;;;;;;;7.50;4.63;;;29.20;22.30;;;;;;5015187;28;20447;-69
2022/06/21 10:51:29;;;;;;;6.00;4.53;;;29.30;22.40;;;;;;5030797;28;20879;-69
2022/06/21 10:54:20;;;;;;;8.43;4.70;;;28.90;23.40;;;;;;5031266;28;20427;-69
2022/06/21 10:57:23;;;;;;;13.00;4.90;;;29.20;21.90;;;;;;5029555;28;20950;-69
2022/06/21 11:03:19;;;;;;;10.23;5.00;;;28.60;24.20;;;;;;5030714;28;20816;-68
2022/06/21 11:06:09;;;;;;;12.23;5.10;;;29.00;23.90;;;;;;5031234;28;20865;-69
2022/06/21 11:08:53;;;;;;;14.93;5.40;;;29.20;23.40;;;;;;5032089;28;20434;-69
2022/06/21 11:11:35;;;;;;;10.70;5.00;;;29.20;23.60;;;;;;5037044;28;20430;-69
2022/06/21 11:14:13;;;;;;;13.03;5.10;;;30.00;24.20;;;;;;5025481;28;20453;-68
2022/06/21 11:16:53;;;;;;;15.93;4.70;;;30.60;21.00;;;;;;5031502;28;20450;-70
2022/06/21 11:19:39;;;;;;;14.23;4.60;;;30.10;23.20;;;;;;5033676;28;20798;-68
2022/06/21 11:22:24;;;;;;;7.00;4.70;;;30.00;22.10;;;;;;5028469;28;20472;-68
2022/06/21 11:24:56;;;;;;;7.47;4.80;;;30.10;20.80;;;;;;5033701;28;20415;-68
2022/06/21 11:27:35;;;;;;;10.70;5.03;;;29.00;24.30;;;;;;5028992;28;20935;-69
2022/06/21 11:30:13;;;;;;;11.53;4.80;;;29.20;23.90;;;;;;5034356;28;20466;-81
2022/06/21 11:32:56;;;;;;;8.10;5.20;;;29.50;24.00;;;;;;5032116;28;20530;-69
2022/06/21 11:35:49;;;;;;;13.40;5.10;;;29.60;23.70;;;;;;5031400;28;20930;-69
2022/06/21 11:38:40;;;;;;;8.37;4.67;;;29.80;21.90;;;;;;5033285;28;20434;-69
2022/06/21 11:44:36;;;;;;;8.47;5.33;;;29.50;23.50;;;;;;5027031;28;20569;-69
2022/06/21 11:47:19;;;;;;;9.63;5.33;;;30.10;23.50;;;;;;5032730;28;20960;-68
2022/06/21 11:50:08;;;;;;;18.93;5.97;;;30.30;22.50;;;;;;5033042;28;20828;-68
2022/06/21 11:52:52;;;;;;;13.33;6.40;;;30.20;24.30;;;;;;5004732;28;20480;-69
2022/06/21 11:55:45;;;;;;;13.13;6.97;;;30.20;25.90;;;;;;5030403;28;20465;-70
2022/06/21 11:58:30;;;;;;;11.03;6.40;;;29.90;26.60;;;;;;5025495;28;20516;-69
2022/06/21 12:00:56;;;;;;;16.87;7.20;;;30.40;23.80;;;;;;5031688;28;20435;-69
2022/06/21 12:03:31;;;;;;;13.80;6.80;;;30.60;24.90;;;;;;5029971;28;20437;-69
2022/06/21 12:06:05;;;;;;;9.63;6.83;;;31.40;24.10;;;;;;5027201;28;20668;-69
2022/06/21 12:08:51;;;;;;;9.63;7.13;;;32.00;23.30;;;;;;5030030;28;20458;-70
2022/06/21 12:11:55;;;;;;;10.70;6.70;;;32.60;23.50;;;;;;5031127;28;20512;-69
2022/06/21 12:15:00;;;;;;;8.17;6.80;;;33.60;21.70;;;;;;5031269;28;20926;-69
2022/06/21 12:17:47;;;;;;;10.43;6.70;;;33.10;19.90;;;;;;5014163;28;20996;-69
2022/06/21 12:20:22;;;;;;;10.93;6.70;;;33.30;20.70;;;;;;5027976;28;20438;-71
2022/06/21 12:22:55;;;;;;;9.00;7.00;;;34.00;21.50;;;;;;5028693;28;20430;-69
2022/06/21 12:25:21;;;;;;;9.27;6.53;;;34.30;19.60;;;;;;5031495;28;20481;-70
2022/06/21 12:27:47;;;;;;;10.20;6.83;;;33.70;20.30;;;;;;5031763;28;20866;-70
2022/06/21 12:30:21;;;;;;;13.90;6.33;;;33.70;19.60;;;;;;5029427;28;20985;-70
2022/06/21 12:32:50;;;;;;;10.53;6.43;;;33.30;20.90;;;;;;5029028;28;20429;-69
2022/06/21 12:35:29;;;;;;;11.50;6.97;;;33.50;21.10;;;;;;5026354;28;20431;-70
2022/06/21 12:37:55;;;;;;;9.03;6.67;;;34.00;21.20;;;;;;5024353;28;20453;-69
2022/06/21 12:40:42;;;;;;;10.20;6.83;;;34.50;19.90;;;;;;5027037;28;21014;-69
2022/06/21 12:43:29;;;;;;;12.03;6.83;;;34.00;20.80;;;;;;5024140;28;20180;-70
2022/06/21 12:46:30;;;;;;;9.67;6.17;;;33.50;20.50;;;;;;5028821;28;20965;-69
2022/06/21 12:49:09;;;;;;;10.57;6.80;;;33.10;21.40;;;;;;4950539;28;20977;-69
2022/06/21 12:51:37;;;;;;;18.90;6.60;;;32.90;20.80;;;;;;4950985;28;20865;-69
2022/06/21 12:54:21;;;;;;;12.53;6.63;;;33.10;21.70;;;;;;4948270;28;20787;-69
2022/06/21 12:56:49;;;;;;;16.43;6.80;;;33.40;20.60;;;;;;4942925;28;20462;-69
2022/06/21 12:59:41;;;;;;;8.50;6.17;;;33.50;20.80;;;;;;4946839;28;20447;-69
2022/06/21 13:02:27;;;;;;;13.50;6.80;;;33.40;21.80;;;;;;4956301;28;20434;-69
2022/06/21 13:05:18;;;;;;;11.63;6.27;;;33.80;20.70;;;;;;4944938;28;20439;-69
2022/06/21 13:08:23;;;;;;;10.97;6.90;;;34.00;21.20;;;;;;4946913;28;20472;-68
2022/06/21 13:10:53;;;;;;;9.70;6.40;;;34.00;19.10;;;;;;4934638;28;20969;-69
2022/06/21 13:13:37;;;;;;;11.03;7.27;;;34.10;19.20;;;;;;4954209;28;20430;-69
2022/06/21 13:16:03;;;;;;;43.67;7.93;;;33.90;19.30;;;;;;4948403;28;20439;-69
2022/06/21 13:19:10;;;;;;;10.43;6.70;;;33.10;19.80;;;;;;4949854;28;20481;-69
2022/06/21 13:21:41;;;;;;;15.10;7.43;;;32.80;19.80;;;;;;4949944;28;20198;-68
2022/06/21 13:24:48;;;;;;;14.23;7.13;;;33.30;21.40;;;;;;4957461;28;20534;-68
2022/06/21 13:27:40;;;;;;;9.33;6.73;;;33.20;21.40;;;;;;5030131;28;20454;-68
2022/06/21 13:30:30;;;;;;;9.30;6.70;;;33.30;20.40;;;;;;5026465;28;20470;-70
2022/06/21 13:33:11;;;;;;;9.47;6.70;;;33.30;20.80;;;;;;5025702;28;20581;-68
2022/06/21 13:35:45;;;;;;;14.40;7.00;;;33.70;20.60;;;;;;5026142;28;20437;-70
2022/06/21 13:38:44;;;;;;;20.00;7.43;;;34.00;19.40;;;;;;5028551;28;20458;-69
2022/06/21 13:44:38;;;;;;;20.63;7.33;;;33.30;20.40;;;;;;5028309;28;20566;-68
2022/06/21 13:47:11;;;;;;;12.80;5.80;;;33.40;19.50;;;;;;5028320;28;20868;-69
2022/06/21 13:49:43;;;;;;;14.17;5.87;;;32.50;21.50;;;;;;5030085;28;20458;-69
2022/06/21 13:52:12;;;;;;;11.20;5.50;;;32.50;20.90;;;;;;5027632;28;20493;-69
2022/06/21 13:55:04;;;;;;;14.30;5.80;;;32.10;22.10;;;;;;5024684;28;20478;-68